Time;durP1;ratioP1;P1;durP2;ratioP2;P2;SDS_P1;SDS_P2;PMS_P1;PMS_P2;Temp;Humidity;BMP_temperature;BMP_pressure;BME280_temperature;BME280_humidity;BME280_pressure;Samples;Min_cycle;Max_cycle;Signal;HPM_P1;HPM_P2
2021/08/06 00:02:14;;;;;;;2.85;2.22;;;21.80;99.90;;;;;;4994624;28;20282;-81
2021/08/06 00:04:41;;;;;;;2.90;2.60;;;21.80;99.90;;;;;;4994716;28;20506;-82
2021/08/06 00:07:07;;;;;;;2.60;2.40;;;21.80;99.90;;;;;;4994514;28;20202;-80
2021/08/06 00:09:37;;;;;;;2.80;2.15;;;21.80;99.90;;;;;;4994843;28;20201;-81
2021/08/06 00:12:05;;;;;;;2.30;2.10;;;21.80;99.90;;;;;;4994653;28;20652;-80
2021/08/06 00:14:32;;;;;;;1.85;1.75;;;21.80;99.90;;;;;;4994740;28;20216;-82
2021/08/06 00:16:59;;;;;;;2.45;2.25;;;21.80;99.90;;;;;;4984747;28;20286;-81
2021/08/06 00:19:27;;;;;;;2.20;2.10;;;21.80;99.90;;;;;;4994877;28;20209;-83
2021/08/06 00:21:54;;;;;;;2.85;1.95;;;21.90;99.90;;;;;;4994199;28;20219;-82
2021/08/06 00:24:20;;;;;;;1.88;1.77;;;21.70;99.90;;;;;;4995029;28;20254;-82
2021/08/06 00:26:47;;;;;;;2.13;1.98;;;21.70;99.90;;;;;;4994422;28;20506;-81
2021/08/06 00:29:14;;;;;;;2.10;1.90;;;21.70;99.90;;;;;;4986765;28;20194;-82
2021/08/06 00:31:41;;;;;;;2.03;1.83;;;21.70;99.90;;;;;;4994343;28;20202;-82
2021/08/06 00:34:07;;;;;;;1.60;1.50;;;21.70;99.90;;;;;;4993896;28;20214;-81
2021/08/06 00:36:35;;;;;;;2.50;2.25;;;21.70;99.90;;;;;;4994343;28;20209;-80
2021/08/06 00:39:02;;;;;;;1.88;1.77;;;21.60;99.90;;;;;;4996395;28;20202;-80
2021/08/06 00:41:29;;;;;;;2.10;1.95;;;21.70;99.90;;;;;;4994482;28;20204;-80
2021/08/06 00:43:56;;;;;;;1.98;1.70;;;21.70;99.90;;;;;;4994656;28;20190;-80
2021/08/06 00:46:23;;;;;;;2.40;2.20;;;21.70;99.90;;;;;;4993519;28;20521;-79
2021/08/06 00:48:50;;;;;;;1.65;1.27;;;21.70;99.90;;;;;;4994108;28;20264;-79
2021/08/06 00:51:17;;;;;;;2.28;2.08;;;21.60;99.90;;;;;;4994394;28;20202;-79
2021/08/06 00:53:46;;;;;;;3.28;2.28;;;21.60;99.90;;;;;;4993662;28;20876;-79
2021/08/06 00:56:13;;;;;;;2.17;1.67;;;21.60;99.90;;;;;;4994162;28;20220;-80
2021/08/06 00:58:40;;;;;;;2.38;2.17;;;21.60;99.90;;;;;;4993130;28;20285;-80
2021/08/06 01:01:07;;;;;;;1.90;1.70;;;21.60;99.90;;;;;;4993295;28;20431;-80
2021/08/06 01:03:42;;;;;;;1.80;1.50;;;21.60;99.90;;;;;;4994490;28;20202;-80
2021/08/06 01:06:15;;;;;;;1.73;1.60;;;21.50;99.90;;;;;;4993944;28;20189;-80
2021/08/06 01:08:50;;;;;;;1.80;1.60;;;21.50;99.90;;;;;;4992825;28;20227;-81
2021/08/06 01:11:19;;;;;;;1.80;1.50;;;21.50;99.90;;;;;;4993409;28;20185;-79
2021/08/06 01:13:53;;;;;;;3.00;2.00;;;21.50;99.90;;;;;;4993441;28;20193;-80
2021/08/06 01:16:20;;;;;;;2.20;1.88;;;21.50;99.90;;;;;;4992820;28;20182;-81
2021/08/06 01:18:53;;;;;;;2.08;1.75;;;21.50;99.90;;;;;;4993714;28;20205;-81
2021/08/06 01:21:21;;;;;;;4.07;1.60;;;21.50;99.90;;;;;;4992623;28;20190;-81
2021/08/06 01:23:51;;;;;;;1.63;1.52;;;21.50;99.90;;;;;;4992988;28;20216;-81
2021/08/06 01:26:23;;;;;;;1.73;1.63;;;21.50;99.90;;;;;;4993448;28;20201;-79
2021/08/06 01:28:51;;;;;;;2.88;1.92;;;21.50;99.90;;;;;;4992669;28;20541;-80
2021/08/06 01:31:24;;;;;;;1.88;1.73;;;21.40;99.90;;;;;;4993108;28;20209;-80
2021/08/06 01:33:51;;;;;;;1.73;1.63;;;21.40;99.90;;;;;;4993368;28;20268;-81
2021/08/06 01:36:18;;;;;;;2.10;1.70;;;21.40;99.90;;;;;;4993015;28;20194;-81
2021/08/06 01:38:45;;;;;;;2.50;2.30;;;21.40;99.90;;;;;;4995023;28;20297;-81
2021/08/06 01:41:21;;;;;;;2.17;1.77;;;21.40;99.90;;;;;;4993204;28;20198;-80
2021/08/06 01:43:57;;;;;;;2.38;1.70;;;21.40;99.90;;;;;;4992984;28;20200;-81
2021/08/06 01:46:30;;;;;;;1.75;1.65;;;21.40;99.90;;;;;;4992574;28;20194;-81
2021/08/06 01:49:03;;;;;;;2.20;1.63;;;21.40;99.90;;;;;;4992947;28;20197;-81
2021/08/06 01:51:33;;;;;;;2.45;1.63;;;21.40;99.90;;;;;;4983203;28;20240;-81
2021/08/06 01:54:02;;;;;;;2.22;2.03;;;21.40;99.90;;;;;;4992240;28;20225;-81
2021/08/06 01:56:31;;;;;;;2.00;1.90;;;21.40;99.90;;;;;;4992754;28;20528;-81
2021/08/06 01:58:59;;;;;;;2.58;1.90;;;21.30;99.90;;;;;;4992939;28;20202;-81
2021/08/06 02:01:26;;;;;;;2.13;1.77;;;21.30;99.90;;;;;;4992875;28;20198;-80
2021/08/06 02:03:53;;;;;;;1.80;1.70;;;21.30;99.90;;;;;;4993168;28;20201;-80
2021/08/06 02:06:20;;;;;;;2.85;1.50;;;21.30;99.90;;;;;;4992976;28;20577;-80
2021/08/06 02:08:48;;;;;;;1.70;1.60;;;21.30;99.90;;;;;;4992153;28;20711;-80
2021/08/06 02:11:18;;;;;;;2.22;1.85;;;21.30;99.90;;;;;;4991967;28;20196;-80
2021/08/06 02:13:47;;;;;;;1.77;1.67;;;21.30;99.90;;;;;;4992354;28;20194;-79
2021/08/06 02:16:14;;;;;;;2.00;1.80;;;21.20;99.90;;;;;;4992670;28;20240;-79
2021/08/06 02:18:42;;;;;;;2.05;1.45;;;21.30;99.90;;;;;;4992396;28;20206;-82
2021/08/06 02:21:12;;;;;;;2.08;1.88;;;21.30;99.90;;;;;;4992577;28;20197;-82
2021/08/06 02:23:43;;;;;;;2.08;1.88;;;21.20;99.90;;;;;;4993077;28;20198;-81
2021/08/06 02:26:13;;;;;;;1.67;1.40;;;21.20;99.90;;;;;;4992567;28;20527;-81
2021/08/06 02:28:41;;;;;;;2.72;2.03;;;21.20;99.90;;;;;;4993360;28;20198;-80
2021/08/06 02:31:09;;;;;;;1.80;1.60;;;21.20;99.90;;;;;;4992778;28;20292;-80
2021/08/06 02:33:37;;;;;;;2.28;1.70;;;21.20;99.90;;;;;;4992979;28;20202;-78
2021/08/06 02:36:04;;;;;;;2.25;1.60;;;21.20;99.90;;;;;;4992440;28;20213;-79
2021/08/06 02:38:31;;;;;;;2.05;1.85;;;21.20;99.90;;;;;;4994735;28;20197;-79
2021/08/06 02:40:57;;;;;;;1.48;1.38;;;21.20;99.90;;;;;;4991926;28;20197;-79
2021/08/06 02:43:24;;;;;;;1.98;1.80;;;21.10;99.90;;;;;;4992536;28;20853;-79
2021/08/06 02:45:51;;;;;;;12.55;2.03;;;21.10;99.90;;;;;;4992705;28;20194;-78
2021/08/06 02:48:20;;;;;;;2.20;1.80;;;21.10;99.90;;;;;;4992393;28;20201;-79
2021/08/06 02:50:47;;;;;;;2.55;2.35;;;20.80;99.90;;;;;;4992245;28;20201;-79
2021/08/06 02:53:14;;;;;;;1.60;1.50;;;21.10;99.90;;;;;;4988368;28;20225;-79
2021/08/06 02:55:42;;;;;;;3.45;2.00;;;21.10;99.90;;;;;;4992276;28;20198;-79
2021/08/06 02:58:09;;;;;;;2.15;1.70;;;21.10;99.90;;;;;;4991973;28;20194;-80
2021/08/06 03:00:35;;;;;;;1.83;1.65;;;21.10;99.90;;;;;;4992003;28;20208;-80
2021/08/06 03:03:02;;;;;;;2.03;1.92;;;21.10;99.90;;;;;;4991906;28;20204;-80
2021/08/06 03:05:30;;;;;;;2.38;1.75;;;21.10;99.90;;;;;;4991463;28;20194;-80
2021/08/06 03:07:57;;;;;;;1.58;1.48;;;21.10;99.90;;;;;;4992170;28;20194;-79
2021/08/06 03:10:23;;;;;;;2.35;1.80;;;21.00;99.90;;;;;;4992030;28;20212;-80
2021/08/06 03:12:51;;;;;;;2.20;2.00;;;21.00;99.90;;;;;;4992525;28;20194;-80
2021/08/06 03:15:19;;;;;;;2.47;1.77;;;21.00;99.90;;;;;;4991401;28;20221;-79
2021/08/06 03:17:46;;;;;;;1.60;1.50;;;21.00;99.90;;;;;;4991693;28;20638;-79
2021/08/06 03:20:15;;;;;;;1.70;1.60;;;21.00;99.90;;;;;;4992355;28;20264;-79
2021/08/06 03:22:44;;;;;;;2.35;2.15;;;20.90;99.90;;;;;;4992123;28;20209;-79
2021/08/06 03:25:11;;;;;;;1.80;1.65;;;20.90;99.90;;;;;;4991690;28;20194;-79
2021/08/06 03:27:38;;;;;;;1.75;1.65;;;20.90;99.90;;;;;;4992288;28;20205;-80
2021/08/06 03:30:07;;;;;;;1.75;1.63;;;21.00;99.90;;;;;;4991734;28;20197;-79
2021/08/06 03:32:34;;;;;;;2.15;1.67;;;20.90;99.90;;;;;;4992261;28;20241;-78
2021/08/06 03:35:01;;;;;;;2.33;2.08;;;20.90;99.90;;;;;;4990952;28;20213;-78
2021/08/06 03:37:28;;;;;;;2.38;2.00;;;20.90;99.90;;;;;;4992401;28;20212;-77
2021/08/06 03:39:56;;;;;;;1.65;1.55;;;20.90;99.90;;;;;;4994810;28;20210;-78
2021/08/06 03:42:22;;;;;;;1.60;1.50;;;20.90;99.90;;;;;;4994683;28;20502;-77
2021/08/06 03:44:49;;;;;;;2.20;2.00;;;20.90;99.90;;;;;;4995836;28;20198;-78
2021/08/06 03:47:16;;;;;;;1.75;1.48;;;20.90;99.90;;;;;;4995502;28;20198;-80
2021/08/06 03:49:43;;;;;;;2.30;2.03;;;20.80;99.90;;;;;;4995011;28;20204;-80
2021/08/06 03:52:10;;;;;;;1.90;1.77;;;20.80;99.90;;;;;;4994810;28;20615;-82
2021/08/06 03:54:36;;;;;;;1.67;1.33;;;20.80;99.90;;;;;;4994670;28;20229;-80
2021/08/06 03:57:05;;;;;;;3.60;1.85;;;20.80;99.90;;;;;;4995089;28;20198;-79
2021/08/06 03:59:33;;;;;;;2.28;2.08;;;20.80;99.90;;;;;;4995091;28;20229;-82
2021/08/06 04:01:59;;;;;;;2.40;1.80;;;20.80;99.90;;;;;;4994757;28;20201;-79
2021/08/06 04:04:26;;;;;;;2.45;1.58;;;20.70;99.90;;;;;;4995197;28;20202;-80
2021/08/06 04:06:53;;;;;;;2.10;1.70;;;20.70;99.90;;;;;;4995382;28;20214;-81
2021/08/06 04:09:19;;;;;;;2.03;1.60;;;20.70;99.90;;;;;;4994718;28;20216;-81
2021/08/06 04:11:46;;;;;;;2.47;2.28;;;20.70;99.90;;;;;;4994979;28;20197;-80
2021/08/06 04:14:14;;;;;;;2.30;1.75;;;20.70;99.90;;;;;;4994510;28;20209;-80
2021/08/06 04:16:41;;;;;;;1.70;1.60;;;20.70;99.90;;;;;;4994858;28;20221;-82
2021/08/06 04:19:07;;;;;;;2.50;1.92;;;20.70;99.90;;;;;;4994668;28;20206;-86
2021/08/06 04:21:34;;;;;;;1.90;1.70;;;20.70;99.90;;;;;;4986651;28;20209;-83
2021/08/06 04:24:01;;;;;;;2.28;1.90;;;20.70;99.90;;;;;;4991673;28;20636;-83
2021/08/06 04:26:27;;;;;;;2.25;1.80;;;20.70;99.90;;;;;;4994014;28;20634;-82
2021/08/06 04:28:54;;;;;;;2.17;1.98;;;20.70;99.90;;;;;;4994831;28;20573;-81
2021/08/06 04:31:22;;;;;;;2.13;1.92;;;20.70;99.90;;;;;;4994755;28;20201;-80
2021/08/06 04:33:49;;;;;;;2.00;1.67;;;20.60;99.90;;;;;;4994496;28;20194;-81
2021/08/06 04:36:15;;;;;;;1.85;1.50;;;20.60;99.90;;;;;;4994306;28;20221;-83
2021/08/06 04:38:42;;;;;;;2.10;1.75;;;20.60;99.90;;;;;;4996671;28;20228;-83
2021/08/06 04:41:09;;;;;;;2.15;1.95;;;20.60;99.90;;;;;;4994731;28;20285;-83
2021/08/06 04:43:36;;;;;;;2.95;1.70;;;20.60;99.90;;;;;;4993633;28;20193;-82
2021/08/06 04:46:03;;;;;;;2.10;1.90;;;20.60;99.90;;;;;;4994067;28;20198;-83
2021/08/06 04:48:31;;;;;;;2.83;1.80;;;20.60;99.90;;;;;;4994365;28;20197;-81
2021/08/06 04:50:57;;;;;;;2.65;2.13;;;20.60;99.90;;;;;;4993515;28;20213;-81
2021/08/06 04:53:24;;;;;;;2.10;1.55;;;20.50;99.90;;;;;;4993364;28;20229;-80
2021/08/06 04:55:51;;;;;;;1.67;1.58;;;20.50;99.90;;;;;;4994070;28;20217;-80
2021/08/06 04:58:17;;;;;;;1.67;1.50;;;20.50;99.90;;;;;;4994017;28;20232;-81
2021/08/06 05:00:44;;;;;;;1.75;1.58;;;20.50;99.90;;;;;;4994215;28;20209;-80
2021/08/06 05:03:11;;;;;;;2.95;1.60;;;20.50;99.90;;;;;;4993560;28;20959;-81
2021/08/06 05:05:39;;;;;;;1.60;1.50;;;20.50;99.90;;;;;;4993743;28;20256;-80
2021/08/06 05:08:06;;;;;;;2.45;1.83;;;20.50;99.90;;;;;;4994445;28;20206;-81
2021/08/06 05:10:32;;;;;;;2.42;2.22;;;20.50;99.90;;;;;;4993669;28;20197;-81
2021/08/06 05:12:59;;;;;;;2.00;1.45;;;20.50;99.90;;;;;;4993634;28;20190;-81
2021/08/06 05:15:26;;;;;;;2.00;1.80;;;20.50;99.90;;;;;;4994069;28;20275;-81
2021/08/06 05:17:52;;;;;;;1.90;1.55;;;20.50;99.90;;;;;;4993618;28;20193;-82
2021/08/06 05:20:19;;;;;;;1.63;1.25;;;20.40;99.90;;;;;;4993514;28;20193;-81
2021/08/06 05:22:47;;;;;;;1.73;1.63;;;20.40;99.90;;;;;;4993433;28;20204;-82
2021/08/06 05:25:14;;;;;;;2.00;1.80;;;20.40;99.90;;;;;;4993183;28;20296;-82
2021/08/06 05:27:43;;;;;;;1.60;1.50;;;20.50;99.90;;;;;;4993825;28;20205;-83
2021/08/06 05:30:10;;;;;;;2.05;1.60;;;20.50;99.90;;;;;;4993466;28;20198;-82
2021/08/06 05:32:37;;;;;;;1.40;1.30;;;20.50;99.90;;;;;;4993265;28;20202;-84
2021/08/06 05:35:04;;;;;;;1.70;1.60;;;20.50;99.90;;;;;;4993847;28;20197;-84
2021/08/06 05:37:31;;;;;;;2.42;1.63;;;20.50;99.90;;;;;;4982215;28;20213;-81
2021/08/06 05:39:59;;;;;;;1.85;1.45;;;20.50;99.90;;;;;;4993745;28;20204;-80
2021/08/06 05:42:26;;;;;;;1.70;1.60;;;20.50;99.90;;;;;;4993616;28;20197;-81
2021/08/06 05:44:52;;;;;;;2.30;1.88;;;20.40;99.90;;;;;;4992180;28;20270;-80
2021/08/06 05:47:19;;;;;;;1.83;1.73;;;20.40;99.90;;;;;;4993579;28;20197;-81
2021/08/06 05:49:45;;;;;;;2.70;1.92;;;20.40;99.90;;;;;;4993279;28;20204;-81
2021/08/06 05:52:12;;;;;;;2.22;1.83;;;20.40;99.90;;;;;;4993206;28;20201;-79
2021/08/06 05:54:39;;;;;;;1.45;1.35;;;20.40;99.90;;;;;;4992391;28;20229;-80
2021/08/06 05:57:07;;;;;;;2.05;1.60;;;20.40;99.90;;;;;;4992512;28;20283;-82
2021/08/06 05:59:34;;;;;;;1.60;1.50;;;20.40;99.90;;;;;;4993388;28;20209;-82
2021/08/06 06:02:01;;;;;;;2.35;1.77;;;20.40;99.90;;;;;;4992757;28;20190;-82
2021/08/06 06:04:27;;;;;;;1.75;1.65;;;20.30;99.90;;;;;;4992802;28;20202;-82
2021/08/06 06:06:54;;;;;;;2.05;1.85;;;20.30;99.90;;;;;;4992851;28;20189;-81
2021/08/06 06:09:20;;;;;;;1.73;1.52;;;20.30;99.90;;;;;;4992653;28;20208;-80
2021/08/06 06:11:47;;;;;;;2.42;1.70;;;20.30;99.90;;;;;;4992641;28;20274;-81
2021/08/06 06:14:15;;;;;;;1.83;1.70;;;20.30;99.90;;;;;;4993060;28;20200;-81
2021/08/06 06:16:42;;;;;;;1.60;1.40;;;20.30;99.90;;;;;;4992872;28;20217;-80
2021/08/06 06:19:09;;;;;;;1.77;1.40;;;20.30;99.90;;;;;;4992296;28;20212;-81
2021/08/06 06:21:35;;;;;;;2.15;1.55;;;20.30;99.90;;;;;;4993063;28;20263;-81
2021/08/06 06:24:02;;;;;;;1.50;1.35;;;20.30;99.90;;;;;;4992612;28;20197;-81
2021/08/06 06:26:29;;;;;;;1.70;1.60;;;20.30;99.90;;;;;;4992208;28;20201;-81
2021/08/06 06:28:55;;;;;;;2.08;1.83;;;20.30;99.90;;;;;;4992789;28;20621;-81
2021/08/06 06:31:23;;;;;;;2.28;2.08;;;20.30;99.90;;;;;;4992713;28;20263;-81
2021/08/06 06:33:50;;;;;;;2.38;2.17;;;20.30;99.90;;;;;;4993995;28;20197;-79
2021/08/06 06:36:17;;;;;;;1.65;1.52;;;20.30;99.90;;;;;;4995840;28;20291;-81
2021/08/06 06:38:43;;;;;;;2.22;1.90;;;20.30;99.90;;;;;;4997911;28;20200;-79
2021/08/06 06:41:10;;;;;;;1.45;1.35;;;20.30;99.90;;;;;;4993394;28;20282;-79
2021/08/06 06:43:37;;;;;;;1.98;1.77;;;20.30;99.90;;;;;;4993037;28;20503;-80
2021/08/06 06:46:04;;;;;;;1.70;1.55;;;20.30;99.90;;;;;;4991836;28;20205;-81
2021/08/06 06:48:32;;;;;;;1.85;1.60;;;20.30;99.90;;;;;;4989295;28;20205;-80
2021/08/06 06:50:59;;;;;;;2.40;1.92;;;20.30;99.90;;;;;;4992199;28;20193;-80
2021/08/06 06:53:25;;;;;;;1.80;1.70;;;20.30;99.90;;;;;;4992079;28;20237;-79
2021/08/06 06:55:52;;;;;;;1.67;1.58;;;20.30;99.90;;;;;;4992102;28;20228;-79
2021/08/06 06:58:19;;;;;;;2.25;2.05;;;20.30;99.90;;;;;;4992553;28;20267;-80
2021/08/06 07:00:46;;;;;;;4.53;1.88;;;20.30;99.90;;;;;;4992520;28;20251;-80
2021/08/06 07:03:12;;;;;;;1.67;1.50;;;20.30;99.90;;;;;;4991538;28;20631;-79
2021/08/06 07:05:40;;;;;;;2.33;2.13;;;20.30;99.90;;;;;;4988164;28;20201;-82
2021/08/06 07:08:07;;;;;;;1.60;1.48;;;20.30;99.90;;;;;;4992719;28;20530;-81
2021/08/06 07:10:34;;;;;;;2.10;1.90;;;20.30;99.90;;;;;;4992081;28;20201;-83
2021/08/06 07:13:01;;;;;;;1.95;1.67;;;20.30;99.90;;;;;;4993624;28;20197;-81
2021/08/06 07:15:27;;;;;;;3.70;1.23;;;20.30;99.90;;;;;;4995865;28;20198;-80
2021/08/06 07:17:54;;;;;;;1.70;1.60;;;20.20;99.90;;;;;;4996100;28;20222;-83
2021/08/06 07:20:21;;;;;;;1.92;1.58;;;20.30;99.90;;;;;;4996340;28;20193;-83
2021/08/06 07:22:50;;;;;;;2.22;1.85;;;20.30;99.90;;;;;;4995944;28;20525;-82
2021/08/06 07:25:18;;;;;;;1.50;1.40;;;20.30;99.90;;;;;;4995104;28;20651;-82
2021/08/06 07:27:46;;;;;;;2.78;1.60;;;20.30;99.90;;;;;;4995624;28;20284;-82
2021/08/06 07:30:13;;;;;;;2.25;1.77;;;20.30;99.90;;;;;;4995296;28;20198;-81
2021/08/06 07:32:40;;;;;;;1.40;1.10;;;20.20;99.90;;;;;;4994839;28;20905;-81
2021/08/06 07:35:08;;;;;;;1.48;1.35;;;20.30;99.90;;;;;;4996058;28;20201;-83
2021/08/06 07:37:35;;;;;;;2.03;1.83;;;20.20;99.90;;;;;;4995355;28;20213;-83
2021/08/06 07:40:05;;;;;;;1.50;1.30;;;20.20;99.90;;;;;;4998209;28;20212;-83
2021/08/06 07:42:31;;;;;;;1.70;1.60;;;20.20;99.90;;;;;;4994530;28;20194;-86
2021/08/06 07:44:58;;;;;;;1.90;1.75;;;20.30;99.90;;;;;;4995203;28;20584;-85
2021/08/06 07:47:25;;;;;;;2.30;1.70;;;20.30;99.90;;;;;;4996060;28;20198;-86
2021/08/06 07:49:52;;;;;;;1.83;1.50;;;20.30;99.90;;;;;;4995788;28;20204;-85
2021/08/06 07:52:18;;;;;;;1.30;1.08;;;20.30;99.90;;;;;;4995079;28;20260;-86
2021/08/06 07:54:45;;;;;;;2.05;1.70;;;20.30;99.90;;;;;;4994855;28;20229;-85
2021/08/06 07:57:13;;;;;;;2.42;1.50;;;20.30;99.90;;;;;;4994935;28;20224;-86
2021/08/06 07:59:40;;;;;;;2.08;1.50;;;20.20;99.90;;;;;;4993588;28;20205;-85
2021/08/06 08:02:07;;;;;;;1.20;1.10;;;20.20;99.90;;;;;;4990624;28;20202;-87
2021/08/06 08:04:34;;;;;;;1.50;1.38;;;20.30;99.90;;;;;;4994955;28;20197;-85
2021/08/06 08:07:01;;;;;;;1.45;1.35;;;20.30;99.90;;;;;;4994761;28;20197;-85
2021/08/06 08:09:28;;;;;;;1.63;1.40;;;20.30;99.90;;;;;;4995439;28;20197;-86
2021/08/06 08:11:54;;;;;;;1.60;1.40;;;20.30;99.90;;;;;;4994512;28;20197;-86
2021/08/06 08:14:22;;;;;;;1.60;1.20;;;20.40;99.90;;;;;;4995060;28;20193;-82
2021/08/06 08:16:49;;;;;;;1.60;1.33;;;20.40;99.90;;;;;;4994537;28;20213;-83
2021/08/06 08:19:18;;;;;;;1.50;1.40;;;20.40;99.90;;;;;;4994715;28;20220;-81
2021/08/06 08:21:45;;;;;;;1.40;1.25;;;20.50;99.90;;;;;;4993843;28;20629;-80
2021/08/06 08:24:11;;;;;;;1.30;1.20;;;20.50;99.90;;;;;;4992011;28;20502;-80
2021/08/06 08:26:38;;;;;;;1.55;1.40;;;20.50;99.90;;;;;;4994592;28;20276;-86
2021/08/06 08:29:05;;;;;;;1.90;1.20;;;20.50;99.90;;;;;;4994997;28;20194;-85
2021/08/06 08:31:34;;;;;;;1.40;1.30;;;20.60;99.90;;;;;;4993491;28;20260;-80
2021/08/06 08:34:00;;;;;;;1.60;1.50;;;20.60;99.90;;;;;;4994918;28;20193;-80
2021/08/06 08:36:27;;;;;;;1.30;1.20;;;20.60;99.90;;;;;;4993696;28;20672;-79
2021/08/06 08:38:54;;;;;;;1.30;1.20;;;20.60;99.90;;;;;;4994552;28;20285;-79
2021/08/06 08:41:21;;;;;;;1.75;1.15;;;20.60;99.90;;;;;;4994117;28;20205;-84
2021/08/06 08:43:48;;;;;;;1.55;1.30;;;20.70;99.90;;;;;;4993480;28;20205;-84
2021/08/06 08:46:15;;;;;;;1.58;1.48;;;20.70;99.90;;;;;;4989084;28;20197;-87
2021/08/06 08:48:44;;;;;;;1.45;1.15;;;20.70;99.90;;;;;;4991826;28;20202;-82
2021/08/06 08:51:13;;;;;;;1.20;1.10;;;20.70;99.90;;;;;;4992086;28;20521;-81
2021/08/06 08:53:40;;;;;;;1.50;1.40;;;20.70;99.90;;;;;;4989463;28;20226;-81
2021/08/06 08:56:07;;;;;;;2.20;1.60;;;20.80;99.90;;;;;;4994814;28;20198;-81
2021/08/06 08:58:37;;;;;;;2.00;1.58;;;20.80;99.90;;;;;;4993876;28;20232;-80
2021/08/06 09:01:04;;;;;;;1.92;1.25;;;20.80;99.90;;;;;;4995108;28;20200;-82
2021/08/06 09:03:46;;;;;;;1.10;0.90;;;20.70;99.90;;;;;;4993693;28;20201;-80
2021/08/06 09:06:13;;;;;;;1.00;0.90;;;20.70;99.90;;;;;;4994414;28;20224;-81
2021/08/06 09:08:40;;;;;;;1.60;1.50;;;20.80;99.90;;;;;;4994175;28;20201;-80
2021/08/06 09:11:27;;;;;;;1.55;1.10;;;20.80;99.90;;;;;;4994478;28;20212;-81
2021/08/06 09:13:54;;;;;;;1.20;1.10;;;20.80;99.90;;;;;;4994486;28;20277;-81
2021/08/06 09:16:21;;;;;;;1.60;1.38;;;20.80;99.90;;;;;;4993355;28;20204;-81
2021/08/06 09:18:49;;;;;;;2.35;1.20;;;20.90;99.90;;;;;;4989426;28;20529;-81
2021/08/06 09:21:23;;;;;;;2.70;1.50;;;21.00;99.90;;;;;;4994616;28;20201;-81
2021/08/06 09:23:52;;;;;;;1.30;1.17;;;21.10;99.90;;;;;;4993317;28;20629;-81
2021/08/06 09:26:31;;;;;;;1.48;1.27;;;21.10;99.90;;;;;;4994538;28;20207;-81
2021/08/06 09:29:00;;;;;;;1.30;1.20;;;21.20;99.90;;;;;;4993368;28;20280;-81
2021/08/06 09:31:27;;;;;;;3.15;1.25;;;21.20;99.90;;;;;;4991198;28;20205;-81
2021/08/06 09:34:10;;;;;;;1.15;1.05;;;21.20;99.90;;;;;;4994408;28;20248;-82
2021/08/06 09:36:37;;;;;;;2.80;1.35;;;21.20;99.90;;;;;;4983743;28;20193;-81
2021/08/06 09:39:14;;;;;;;1.10;1.00;;;21.30;99.90;;;;;;4996648;28;20533;-81
2021/08/06 09:41:42;;;;;;;1.67;1.45;;;21.30;99.90;;;;;;4993439;28;20204;-81
2021/08/06 09:44:17;;;;;;;1.48;1.20;;;21.30;99.90;;;;;;4994394;28;20201;-81
2021/08/06 09:46:45;;;;;;;1.50;1.10;;;21.30;99.90;;;;;;4993736;28;20185;-80
2021/08/06 09:49:14;;;;;;;1.10;1.00;;;21.20;99.90;;;;;;4991901;28;20201;-81
2021/08/06 09:51:42;;;;;;;1.60;1.50;;;21.20;99.90;;;;;;4994976;28;20625;-81
2021/08/06 09:54:18;;;;;;;1.40;1.30;;;21.20;99.90;;;;;;4995508;28;20229;-82
2021/08/06 09:56:45;;;;;;;1.50;1.30;;;21.10;99.90;;;;;;4993732;28;20217;-79
2021/08/06 09:59:11;;;;;;;1.92;1.30;;;21.20;99.90;;;;;;4994057;28;20197;-81
2021/08/06 10:01:38;;;;;;;2.40;1.48;;;21.10;99.90;;;;;;4993812;28;20196;-79
2021/08/06 10:04:16;;;;;;;2.00;1.60;;;21.10;99.90;;;;;;4991608;28;20197;-80
2021/08/06 10:06:57;;;;;;;2.47;1.77;;;21.10;99.90;;;;;;4984758;28;20201;-79
2021/08/06 10:09:25;;;;;;;1.83;1.50;;;21.10;99.90;;;;;;4993723;28;20210;-79
2021/08/06 10:11:51;;;;;;;1.55;1.40;;;21.10;99.90;;;;;;4993557;28;20202;-79
2021/08/06 10:14:18;;;;;;;1.60;1.50;;;21.00;99.90;;;;;;4992682;28;20216;-78
2021/08/06 10:16:45;;;;;;;1.75;1.50;;;21.00;99.90;;;;;;4993343;28;20209;-78
2021/08/06 10:19:13;;;;;;;1.90;1.80;;;21.00;99.90;;;;;;4991076;28;20201;-76
2021/08/06 10:21:42;;;;;;;1.30;1.13;;;21.00;99.90;;;;;;4993232;28;20197;-76
2021/08/06 10:24:14;;;;;;;1.70;1.60;;;21.10;99.90;;;;;;4993274;28;20197;-75
2021/08/06 10:26:43;;;;;;;1.75;1.52;;;21.10;99.90;;;;;;4992862;28;20209;-76
2021/08/06 10:29:10;;;;;;;1.48;1.27;;;21.30;99.90;;;;;;4993768;28;20193;-76
2021/08/06 10:31:37;;;;;;;1.40;1.30;;;21.30;99.90;;;;;;4993385;28;20208;-75
2021/08/06 10:34:06;;;;;;;2.35;1.60;;;21.30;99.90;;;;;;4992863;28;20537;-75
2021/08/06 10:36:43;;;;;;;1.63;1.40;;;21.30;99.90;;;;;;4993748;28;20213;-78
2021/08/06 10:39:42;;;;;;;1.90;1.38;;;21.30;99.90;;;;;;4993218;28;20194;-75
2021/08/06 10:42:10;;;;;;;1.80;1.30;;;21.40;99.90;;;;;;4990411;28;20205;-75
2021/08/06 10:44:53;;;;;;;2.10;1.80;;;21.40;99.90;;;;;;4993057;28;20202;-75
2021/08/06 10:47:20;;;;;;;1.73;1.40;;;21.30;99.90;;;;;;4988346;28;20240;-76
2021/08/06 10:50:15;;;;;;;1.95;1.45;;;21.40;99.90;;;;;;4996750;28;20201;-75
2021/08/06 10:52:43;;;;;;;1.67;1.58;;;21.40;99.90;;;;;;4995021;28;20229;-79
2021/08/06 10:55:20;;;;;;;2.42;1.30;;;21.50;99.90;;;;;;4995846;28;20209;-79
2021/08/06 10:57:47;;;;;;;1.35;1.25;;;21.40;99.90;;;;;;4988740;28;20197;-76
2021/08/06 11:00:34;;;;;;;2.45;1.88;;;21.60;99.90;;;;;;4996359;28;20197;-80
2021/08/06 11:03:01;;;;;;;2.00;1.80;;;21.50;99.90;;;;;;4994055;28;20216;-78
2021/08/06 11:05:45;;;;;;;1.63;1.52;;;21.50;99.90;;;;;;4996825;28;20217;-75
2021/08/06 11:08:57;;;;;;;2.85;1.60;;;21.50;99.90;;;;;;4992356;28;20621;-74
2021/08/06 11:11:48;;;;;;;1.60;1.40;;;21.50;99.90;;;;;;4995206;28;20201;-75
2021/08/06 11:14:17;;;;;;;1.27;1.15;;;21.60;99.90;;;;;;4996622;28;20197;-76
2021/08/06 11:17:01;;;;;;;1.60;1.50;;;21.60;99.90;;;;;;4996617;28;20193;-76
2021/08/06 11:19:29;;;;;;;1.73;1.63;;;21.60;99.90;;;;;;4995736;28;20648;-75
2021/08/06 11:21:57;;;;;;;1.88;1.40;;;21.70;99.90;;;;;;4997151;28;20198;-78
2021/08/06 11:24:23;;;;;;;2.90;2.55;;;21.70;99.90;;;;;;4994821;28;20201;-80
2021/08/06 11:26:52;;;;;;;2.00;1.70;;;21.70;99.90;;;;;;4995162;28;20212;-76
2021/08/06 11:29:19;;;;;;;1.92;1.42;;;21.70;99.90;;;;;;4995178;28;20209;-76
2021/08/06 11:31:58;;;;;;;1.75;1.48;;;21.70;99.90;;;;;;4996087;28;20293;-75
2021/08/06 11:34:24;;;;;;;1.40;1.20;;;21.80;99.90;;;;;;4992788;28;20200;-76
2021/08/06 11:36:57;;;;;;;2.65;1.45;;;21.80;99.90;;;;;;4993728;28;20205;-76
2021/08/06 11:39:23;;;;;;;2.70;2.50;;;21.80;99.90;;;;;;4999818;28;20549;-76
2021/08/06 11:41:53;;;;;;;2.35;1.48;;;21.80;99.90;;;;;;4995954;28;20206;-74
2021/08/06 11:44:20;;;;;;;1.80;1.48;;;21.70;99.90;;;;;;4996130;28;20194;-75
2021/08/06 11:46:48;;;;;;;1.70;1.60;;;21.80;99.90;;;;;;4995787;28;20205;-76
2021/08/06 11:49:15;;;;;;;1.65;1.30;;;21.80;99.90;;;;;;4995907;28;20613;-76
2021/08/06 11:51:47;;;;;;;2.17;1.25;;;21.80;99.90;;;;;;4995451;28;20660;-76
2021/08/06 11:54:14;;;;;;;3.08;1.35;;;21.80;99.90;;;;;;4995559;28;20312;-78
2021/08/06 11:56:40;;;;;;;3.05;1.33;;;21.80;99.90;;;;;;4996023;28;20201;-77
2021/08/06 11:59:09;;;;;;;1.77;1.63;;;21.90;99.90;;;;;;4994996;28;20271;-80
2021/08/06 12:01:36;;;;;;;1.48;1.38;;;22.00;99.90;;;;;;4995954;28;20204;-77
2021/08/06 12:04:03;;;;;;;1.33;1.23;;;21.90;99.90;;;;;;4995767;28;20197;-76
2021/08/06 12:06:31;;;;;;;1.30;1.20;;;22.00;99.90;;;;;;4995768;28;20543;-76
2021/08/06 12:08:58;;;;;;;2.85;1.60;;;22.00;99.90;;;;;;4995657;28;20249;-74
2021/08/06 12:11:28;;;;;;;1.55;1.30;;;22.00;99.90;;;;;;4996000;28;20626;-75
2021/08/06 12:13:56;;;;;;;1.40;1.30;;;22.00;99.90;;;;;;4992743;28;20864;-75
2021/08/06 12:16:26;;;;;;;4.07;1.85;;;22.00;99.90;;;;;;4994420;28;20204;-77
2021/08/06 12:18:55;;;;;;;4.18;1.30;;;22.00;99.90;;;;;;4994793;28;20217;-77
2021/08/06 12:21:25;;;;;;;1.73;1.45;;;22.00;99.90;;;;;;4994850;28;20201;-82
2021/08/06 12:23:54;;;;;;;1.73;1.50;;;22.00;99.90;;;;;;4995547;28;20204;-79
2021/08/06 12:26:23;;;;;;;2.60;1.70;;;22.00;99.90;;;;;;4994420;28;20201;-77
2021/08/06 12:28:53;;;;;;;1.95;1.75;;;22.00;99.90;;;;;;4995396;28;20221;-83
2021/08/06 12:31:27;;;;;;;1.30;1.20;;;21.90;99.90;;;;;;4993023;28;20212;-77
2021/08/06 12:34:07;;;;;;;2.13;1.70;;;22.00;99.90;;;;;;4991759;28;20625;-77
2021/08/06 12:36:34;;;;;;;3.00;1.50;;;21.90;99.90;;;;;;4995083;28;20444;-76
2021/08/06 12:39:14;;;;;;;2.15;1.80;;;22.20;99.90;;;;;;4997931;28;20221;-77
2021/08/06 12:41:43;;;;;;;3.35;1.90;;;21.80;99.90;;;;;;4994804;28;20205;-73
2021/08/06 12:44:18;;;;;;;3.22;1.60;;;21.80;99.90;;;;;;4995567;28;20201;-76
2021/08/06 12:46:58;;;;;;;2.65;1.75;;;21.70;99.90;;;;;;4995120;28;20189;-81
2021/08/06 12:49:26;;;;;;;1.98;1.50;;;21.70;99.90;;;;;;4990511;28;20185;-89
2021/08/06 12:51:58;;;;;;;1.52;1.42;;;21.70;99.90;;;;;;4995186;28;20209;-86
2021/08/06 12:55:03;;;;;;;1.70;1.30;;;21.70;99.90;;;;;;4994901;28;20237;-84
2021/08/06 12:57:38;;;;;;;1.55;1.35;;;21.70;99.90;;;;;;4982524;28;20216;-80